sensor_id;sensor_type;location;lat;lon;timestamp;P1;durP1;ratioP1;P2;durP2;ratioP2
826;SDS011;395;48.132;11.608;2024-03-22T11:53:21;7.67;;;6.17;;
826;SDS011;395;48.132;11.608;2024-03-22T11:55:49;6.80;;;6.17;;
826;SDS011;395;48.132;11.608;2024-03-22T11:58:15;8.33;;;5.50;;
826;SDS011;395;48.132;11.608;2024-03-22T12:00:43;5.50;;;5.00;;
826;SDS011;395;48.132;11.608;2024-03-22T12:03:09;6.80;;;6.20;;
826;SDS011;395;48.132;11.608;2024-03-22T12:05:35;7.03;;;6.30;;
826;SDS011;395;48.132;11.608;2024-03-22T12:08:01;6.37;;;5.87;;
826;SDS011;395;48.132;11.608;2024-03-22T12:10:27;9.37;;;6.30;;
826;SDS011;395;48.132;11.608;2024-03-22T12:12:53;8.50;;;6.40;;
826;SDS011;395;48.132;11.608;2024-03-22T12:15:19;6.37;;;5.30;;
826;SDS011;395;48.132;11.608;2024-03-22T12:17:45;10.33;;;5.87;;
826;SDS011;395;48.132;11.608;2024-03-22T12:20:11;6.50;;;5.90;;
826;SDS011;395;48.132;11.608;2024-03-22T12:22:36;9.43;;;5.60;;
826;SDS011;395;48.132;11.608;2024-03-22T12:25:02;7.33;;;5.90;;
826;SDS011;395;48.132;11.608;2024-03-22T12:27:30;7.30;;;6.60;;
826;SDS011;395;48.132;11.608;2024-03-22T12:29:56;6.63;;;5.63;;
826;SDS011;395;48.132;11.608;2024-03-22T12:32:21;7.00;;;6.40;;
826;SDS011;395;48.132;11.608;2024-03-22T12:34:47;6.23;;;5.63;;
826;SDS011;395;48.132;11.608;2024-03-22T12:37:13;8.30;;;7.50;;
826;SDS011;395;48.132;11.608;2024-03-22T12:39:39;9.43;;;6.70;;
826;SDS011;395;48.132;11.608;2024-03-22T12:42:05;5.80;;;5.30;;
826;SDS011;395;48.132;11.608;2024-03-22T12:44:31;9.27;;;6.03;;
826;SDS011;395;48.132;11.608;2024-03-22T12:46:57;6.57;;;5.97;;
826;SDS011;395;48.132;11.608;2024-03-22T12:49:24;6.83;;;6.13;;
826;SDS011;395;48.132;11.608;2024-03-22T12:51:50;7.10;;;5.50;;
826;SDS011;395;48.132;11.608;2024-03-22T12:54:16;7.37;;;4.57;;
826;SDS011;395;48.132;11.608;2024-03-22T12:56:43;6.03;;;4.97;;
826;SDS011;395;48.132;11.608;2024-03-22T12:59:09;5.17;;;4.70;;
826;SDS011;395;48.132;11.608;2024-03-22T13:01:35;6.40;;;5.77;;
826;SDS011;395;48.132;11.608;2024-03-22T13:04:03;6.67;;;5.30;;
826;SDS011;395;48.132;11.608;2024-03-22T13:06:29;5.20;;;4.80;;
826;SDS011;395;48.132;11.608;2024-03-22T13:08:55;9.00;;;8.00;;
826;SDS011;395;48.132;11.608;2024-03-22T13:11:22;5.77;;;5.10;;
826;SDS011;395;48.132;11.608;2024-03-22T13:13:48;5.87;;;5.13;;
826;SDS011;395;48.132;11.608;2024-03-22T13:16:14;7.13;;;5.63;;
826;SDS011;395;48.132;11.608;2024-03-22T13:18:44;6.17;;;5.50;;
826;SDS011;395;48.132;11.608;2024-03-22T13:21:10;5.83;;;5.33;;
826;SDS011;395;48.132;11.608;2024-03-22T13:23:36;6.47;;;5.90;;
826;SDS011;395;48.132;11.608;2024-03-22T13:26:06;6.97;;;5.90;;
826;SDS011;395;48.132;11.608;2024-03-22T13:28:32;6.17;;;5.17;;
826;SDS011;395;48.132;11.608;2024-03-22T13:31:01;5.10;;;4.60;;
826;SDS011;395;48.132;11.608;2024-03-22T13:33:29;6.03;;;5.43;;
826;SDS011;395;48.132;11.608;2024-03-22T13:35:56;5.80;;;5.20;;
826;SDS011;395;48.132;11.608;2024-03-22T13:38:23;6.93;;;4.53;;
826;SDS011;395;48.132;11.608;2024-03-22T13:40:56;4.47;;;4.07;;
826;SDS011;395;48.132;11.608;2024-03-22T13:43:22;5.73;;;3.60;;
826;SDS011;395;48.132;11.608;2024-03-22T13:45:52;8.03;;;3.70;;
826;SDS011;395;48.132;11.608;2024-03-22T13:48:22;5.07;;;3.37;;
826;SDS011;395;48.132;11.608;2024-03-22T13:50:52;4.03;;;3.70;;
826;SDS011;395;48.132;11.608;2024-03-22T13:53:19;3.90;;;3.60;;
826;SDS011;395;48.132;11.608;2024-03-22T13:55:47;3.90;;;3.47;;
826;SDS011;395;48.132;11.608;2024-03-22T13:58:13;3.77;;;3.10;;
826;SDS011;395;48.132;11.608;2024-03-22T14:00:39;4.17;;;2.50;;
826;SDS011;395;48.132;11.608;2024-03-22T14:03:06;3.57;;;3.03;;
826;SDS011;395;48.132;11.608;2024-03-22T14:05:32;4.30;;;3.43;;
826;SDS011;395;48.132;11.608;2024-03-22T14:08:01;4.67;;;3.10;;
826;SDS011;395;48.132;11.608;2024-03-22T14:10:29;3.17;;;2.87;;
826;SDS011;395;48.132;11.608;2024-03-22T14:12:56;3.60;;;2.80;;
826;SDS011;395;48.132;11.608;2024-03-22T14:15:33;3.33;;;3.03;;
826;SDS011;395;48.132;11.608;2024-03-22T14:18:00;3.60;;;2.63;;
826;SDS011;395;48.132;11.608;2024-03-22T14:20:26;3.07;;;2.77;;
826;SDS011;395;48.132;11.608;2024-03-22T14:22:54;3.63;;;3.27;;
826;SDS011;395;48.132;11.608;2024-03-22T14:25:20;4.67;;;3.10;;
826;SDS011;395;48.132;11.608;2024-03-22T14:27:46;3.03;;;2.73;;
826;SDS011;395;48.132;11.608;2024-03-22T14:30:14;2.80;;;2.50;;
826;SDS011;395;48.132;11.608;2024-03-22T14:32:40;3.00;;;2.33;;
826;SDS011;395;48.132;11.608;2024-03-22T14:35:07;6.23;;;3.60;;
826;SDS011;395;48.132;11.608;2024-03-22T14:37:34;3.20;;;2.90;;
826;SDS011;395;48.132;11.608;2024-03-22T14:40:00;3.53;;;2.87;;
826;SDS011;395;48.132;11.608;2024-03-22T14:42:30;2.60;;;2.40;;
826;SDS011;395;48.132;11.608;2024-03-22T14:44:56;2.43;;;2.10;;
826;SDS011;395;48.132;11.608;2024-03-22T14:47:22;2.80;;;2.50;;
826;SDS011;395;48.132;11.608;2024-03-22T14:49:49;7.07;;;2.87;;
826;SDS011;395;48.132;11.608;2024-03-22T14:52:16;2.50;;;2.30;;
826;SDS011;395;48.132;11.608;2024-03-22T14:54:42;3.83;;;2.20;;
826;SDS011;395;48.132;11.608;2024-03-22T14:57:09;2.50;;;2.30;;
826;SDS011;395;48.132;11.608;2024-03-22T14:59:36;2.67;;;2.47;;
826;SDS011;395;48.132;11.608;2024-03-22T15:02:02;2.73;;;2.23;;
826;SDS011;395;48.132;11.608;2024-03-22T15:04:28;2.87;;;2.30;;
826;SDS011;395;48.132;11.608;2024-03-22T15:06:54;3.03;;;2.70;;
826;SDS011;395;48.132;11.608;2024-03-22T15:09:20;2.60;;;1.80;;
826;SDS011;395;48.132;11.608;2024-03-22T15:11:47;4.30;;;1.70;;
826;SDS011;395;48.132;11.608;2024-03-22T15:14:14;2.30;;;1.77;;
826;SDS011;395;48.132;11.608;2024-03-22T15:16:40;1.60;;;1.50;;
826;SDS011;395;48.132;11.608;2024-03-22T15:19:10;2.50;;;1.30;;
826;SDS011;395;48.132;11.608;2024-03-22T15:21:36;1.40;;;1.13;;
826;SDS011;395;48.132;11.608;2024-03-22T15:24:02;3.30;;;1.53;;
826;SDS011;395;48.132;11.608;2024-03-22T15:26:29;2.40;;;1.40;;
826;SDS011;395;48.132;11.608;2024-03-22T15:28:55;1.60;;;1.27;;
826;SDS011;395;48.132;11.608;2024-03-22T15:31:21;1.77;;;1.60;;
826;SDS011;395;48.132;11.608;2024-03-22T15:33:48;2.00;;;1.53;;
826;SDS011;395;48.132;11.608;2024-03-22T15:36:14;3.30;;;1.90;;
826;SDS011;395;48.132;11.608;2024-03-22T15:38:40;1.97;;;1.57;;
826;SDS011;395;48.132;11.608;2024-03-22T15:41:08;1.57;;;1.47;;
826;SDS011;395;48.132;11.608;2024-03-22T15:43:35;1.60;;;1.50;;
826;SDS011;395;48.132;11.608;2024-03-22T15:46:01;1.53;;;1.43;;
826;SDS011;395;48.132;11.608;2024-03-22T15:48:27;3.10;;;1.70;;
826;SDS011;395;48.132;11.608;2024-03-22T15:50:55;1.80;;;1.70;;
826;SDS011;395;48.132;11.608;2024-03-22T15:53:21;1.40;;;1.30;;
826;SDS011;395;48.132;11.608;2024-03-22T15:55:48;3.87;;;1.70;;
826;SDS011;395;48.132;11.608;2024-03-22T15:58:14;1.73;;;1.63;;
826;SDS011;395;48.132;11.608;2024-03-22T16:00:40;1.50;;;1.40;;
826;SDS011;395;48.132;11.608;2024-03-22T16:03:06;3.33;;;1.40;;
826;SDS011;395;48.132;11.608;2024-03-22T16:05:32;3.10;;;1.30;;
826;SDS011;395;48.132;11.608;2024-03-22T16:07:58;1.30;;;1.20;;
826;SDS011;395;48.132;11.608;2024-03-22T16:10:24;1.13;;;1.10;;
826;SDS011;395;48.132;11.608;2024-03-22T16:12:51;1.10;;;1.00;;
826;SDS011;395;48.132;11.608;2024-03-22T16:15:17;2.00;;;1.30;;
826;SDS011;395;48.132;11.608;2024-03-22T16:17:43;1.60;;;1.50;;
826;SDS011;395;48.132;11.608;2024-03-22T16:20:10;2.10;;;0.93;;
826;SDS011;395;48.132;11.608;2024-03-22T16:22:37;2.13;;;1.93;;
826;SDS011;395;48.132;11.608;2024-03-22T16:25:07;2.40;;;1.20;;
826;SDS011;395;48.132;11.608;2024-03-22T16:27:33;2.47;;;1.17;;
826;SDS011;395;48.132;11.608;2024-03-22T16:30:00;1.40;;;1.03;;
826;SDS011;395;48.132;11.608;2024-03-22T16:32:26;2.43;;;1.00;;
826;SDS011;395;48.132;11.608;2024-03-22T16:34:52;1.40;;;1.30;;
826;SDS011;395;48.132;11.608;2024-03-22T16:37:18;1.47;;;1.20;;
826;SDS011;395;48.132;11.608;2024-03-22T16:39:44;1.33;;;1.20;;
826;SDS011;395;48.132;11.608;2024-03-22T16:42:11;1.60;;;1.50;;
826;SDS011;395;48.132;11.608;2024-03-22T16:44:37;2.63;;;1.30;;
826;SDS011;395;48.132;11.608;2024-03-22T16:47:04;1.30;;;1.20;;
826;SDS011;395;48.132;11.608;2024-03-22T16:49:32;1.50;;;1.30;;
826;SDS011;395;48.132;11.608;2024-03-22T16:51:58;2.87;;;1.57;;
826;SDS011;395;48.132;11.608;2024-03-22T16:54:24;2.20;;;1.70;;
826;SDS011;395;48.132;11.608;2024-03-22T16:56:51;3.90;;;1.83;;
826;SDS011;395;48.132;11.608;2024-03-22T16:59:18;2.10;;;1.53;;
826;SDS011;395;48.132;11.608;2024-03-22T17:01:44;3.33;;;1.80;;
826;SDS011;395;48.132;11.608;2024-03-22T17:04:10;2.27;;;1.83;;
826;SDS011;395;48.132;11.608;2024-03-22T17:06:36;3.00;;;1.70;;
826;SDS011;395;48.132;11.608;2024-03-22T17:09:04;1.60;;;1.50;;
826;SDS011;395;48.132;11.608;2024-03-22T17:11:31;1.40;;;1.30;;
826;SDS011;395;48.132;11.608;2024-03-22T17:14:00;2.40;;;1.20;;
826;SDS011;395;48.132;11.608;2024-03-22T17:16:26;2.43;;;1.30;;
826;SDS011;395;48.132;11.608;2024-03-22T17:18:52;3.60;;;1.73;;
826;SDS011;395;48.132;11.608;2024-03-22T17:21:21;3.20;;;1.50;;
826;SDS011;395;48.132;11.608;2024-03-22T17:23:49;1.47;;;1.20;;
826;SDS011;395;48.132;11.608;2024-03-22T17:26:15;3.30;;;1.70;;
826;SDS011;395;48.132;11.608;2024-03-22T17:28:42;2.60;;;1.63;;
826;SDS011;395;48.132;11.608;2024-03-22T17:31:09;2.77;;;1.93;;
826;SDS011;395;48.132;11.608;2024-03-22T17:33:36;2.07;;;1.77;;
826;SDS011;395;48.132;11.608;2024-03-22T17:36:02;2.13;;;1.80;;
826;SDS011;395;48.132;11.608;2024-03-22T17:38:28;1.90;;;1.70;;
826;SDS011;395;48.132;11.608;2024-03-22T17:40:55;2.87;;;2.20;;
826;SDS011;395;48.132;11.608;2024-03-22T17:43:21;3.00;;;2.70;;
826;SDS011;395;48.132;11.608;2024-03-22T17:45:56;4.63;;;2.73;;
826;SDS011;395;48.132;11.608;2024-03-22T17:48:23;3.20;;;2.90;;
826;SDS011;395;48.132;11.608;2024-03-22T17:50:49;3.70;;;2.70;;
826;SDS011;395;48.132;11.608;2024-03-22T17:53:15;3.57;;;3.27;;
826;SDS011;395;48.132;11.608;2024-03-22T17:55:42;5.27;;;4.23;;
826;SDS011;395;48.132;11.608;2024-03-22T17:58:08;4.00;;;3.60;;
826;SDS011;395;48.132;11.608;2024-03-22T18:00:34;5.00;;;4.47;;
826;SDS011;395;48.132;11.608;2024-03-22T18:03:00;8.00;;;7.00;;
826;SDS011;395;48.132;11.608;2024-03-22T18:05:26;8.87;;;6.80;;
826;SDS011;395;48.132;11.608;2024-03-22T18:07:53;5.87;;;5.07;;
826;SDS011;395;48.132;11.608;2024-03-22T18:10:19;4.97;;;4.47;;
826;SDS011;395;48.132;11.608;2024-03-22T18:12:45;8.20;;;6.60;;
826;SDS011;395;48.132;11.608;2024-03-22T18:15:11;9.80;;;8.33;;
826;SDS011;395;48.132;11.608;2024-03-22T18:17:37;11.13;;;10.03;;
826;SDS011;395;48.132;11.608;2024-03-22T18:20:05;10.70;;;9.20;;
826;SDS011;395;48.132;11.608;2024-03-22T18:22:34;17.07;;;15.27;;
826;SDS011;395;48.132;11.608;2024-03-22T18:25:00;10.50;;;9.50;;
826;SDS011;395;48.132;11.608;2024-03-22T18:27:26;13.77;;;12.37;;
826;SDS011;395;48.132;11.608;2024-03-22T18:29:52;14.00;;;11.93;;
826;SDS011;395;48.132;11.608;2024-03-22T18:32:18;11.10;;;9.60;;
826;SDS011;395;48.132;11.608;2024-03-22T18:34:45;9.70;;;8.70;;
826;SDS011;395;48.132;11.608;2024-03-22T18:37:11;10.27;;;8.70;;
826;SDS011;395;48.132;11.608;2024-03-22T18:39:37;9.90;;;7.80;;
826;SDS011;395;48.132;11.608;2024-03-22T18:42:03;8.40;;;7.53;;
826;SDS011;395;48.132;11.608;2024-03-22T18:44:30;7.07;;;6.03;;
826;SDS011;395;48.132;11.608;2024-03-22T18:46:58;8.23;;;7.17;;
826;SDS011;395;48.132;11.608;2024-03-22T18:49:24;12.57;;;9.47;;
826;SDS011;395;48.132;11.608;2024-03-22T18:51:50;8.90;;;7.97;;
826;SDS011;395;48.132;11.608;2024-03-22T18:54:20;13.03;;;7.33;;
826;SDS011;395;48.132;11.608;2024-03-22T18:56:46;10.60;;;7.67;;
826;SDS011;395;48.132;11.608;2024-03-22T18:59:12;9.30;;;7.40;;
826;SDS011;395;48.132;11.608;2024-03-22T19:01:39;8.40;;;7.47;;
826;SDS011;395;48.132;11.608;2024-03-22T19:04:05;10.03;;;7.80;;
826;SDS011;395;48.132;11.608;2024-03-22T19:06:31;7.53;;;5.93;;
826;SDS011;395;48.132;11.608;2024-03-22T19:08:57;7.80;;;6.43;;
826;SDS011;395;48.132;11.608;2024-03-22T19:11:23;6.13;;;5.43;;
826;SDS011;395;48.132;11.608;2024-03-22T19:13:49;6.90;;;4.90;;
826;SDS011;395;48.132;11.608;2024-03-22T19:16:16;8.93;;;5.20;;
826;SDS011;395;48.132;11.608;2024-03-22T19:18:42;7.50;;;5.50;;
826;SDS011;395;48.132;11.608;2024-03-22T19:21:08;7.53;;;5.03;;
826;SDS011;395;48.132;11.608;2024-03-22T19:23:34;8.10;;;5.80;;
826;SDS011;395;48.132;11.608;2024-03-22T19:26:00;6.10;;;4.67;;
826;SDS011;395;48.132;11.608;2024-03-22T19:28:26;7.53;;;5.20;;
826;SDS011;395;48.132;11.608;2024-03-22T19:30:55;5.23;;;3.90;;
826;SDS011;395;48.132;11.608;2024-03-22T19:33:22;5.60;;;4.50;;
826;SDS011;395;48.132;11.608;2024-03-22T19:35:48;6.50;;;3.60;;
826;SDS011;395;48.132;11.608;2024-03-22T19:38:15;4.97;;;4.33;;
826;SDS011;395;48.132;11.608;2024-03-22T19:40:42;6.33;;;4.00;;
826;SDS011;395;48.132;11.608;2024-03-22T19:43:08;6.87;;;3.77;;
826;SDS011;395;48.132;11.608;2024-03-22T19:45:34;6.63;;;4.83;;
826;SDS011;395;48.132;11.608;2024-03-22T19:48:00;5.90;;;4.77;;
826;SDS011;395;48.132;11.608;2024-03-22T19:50:26;6.53;;;4.50;;
826;SDS011;395;48.132;11.608;2024-03-22T19:52:52;5.77;;;3.70;;
826;SDS011;395;48.132;11.608;2024-03-22T19:55:19;6.03;;;4.57;;
826;SDS011;395;48.132;11.608;2024-03-22T19:57:45;4.90;;;4.33;;
826;SDS011;395;48.132;11.608;2024-03-22T20:00:11;7.40;;;5.37;;
826;SDS011;395;48.132;11.608;2024-03-22T20:02:38;6.97;;;5.30;;
826;SDS011;395;48.132;11.608;2024-03-22T20:05:04;7.90;;;5.10;;
826;SDS011;395;48.132;11.608;2024-03-22T20:07:31;6.83;;;5.47;;
826;SDS011;395;48.132;11.608;2024-03-22T20:09:57;10.90;;;6.90;;
826;SDS011;395;48.132;11.608;2024-03-22T20:12:23;7.30;;;5.43;;
826;SDS011;395;48.132;11.608;2024-03-22T20:14:49;7.37;;;6.60;;
826;SDS011;395;48.132;11.608;2024-03-22T20:17:16;7.37;;;6.03;;
826;SDS011;395;48.132;11.608;2024-03-22T20:19:42;8.73;;;5.57;;
826;SDS011;395;48.132;11.608;2024-03-22T20:22:08;7.67;;;6.50;;
826;SDS011;395;48.132;11.608;2024-03-22T20:24:34;13.80;;;9.37;;
826;SDS011;395;48.132;11.608;2024-03-22T20:27:03;15.33;;;9.90;;
826;SDS011;395;48.132;11.608;2024-03-22T20:29:30;16.73;;;9.80;;
826;SDS011;395;48.132;11.608;2024-03-22T20:31:56;11.87;;;8.63;;
826;SDS011;395;48.132;11.608;2024-03-22T20:34:22;16.10;;;8.10;;
826;SDS011;395;48.132;11.608;2024-03-22T20:36:48;9.23;;;6.40;;
